Calgary Springbank Airport
CYBW : now visible

Airfield :











YOU CAN JOIN US ON...

 
LOGIN :

Register | Disclaimer

   EN    FR    IT 

 









Legend :    VFR   Marginal VFR   IFR   Intensive IFR   Very Intensive IFR
Visi :
Ceiling :
>= 8 km
>= 3000ft
5 to 8 km
1000 to 3000 ft
1500m to 5 km
500 to 1000 ft
800 to 1500m
200 to 500 ft
< 800m
< 200 ft
Symbols :   Thunderstorms  Fog  Heavy snow  Heavy precipitations  Wind > 20 kt






- Airport Elevation : 3937 ft
- IATA code : YBW


CYBW - Calgary Springbank

CURRENT METAR :
  • 041600Z AUTO 27007KT 9SM CLR 01/M11 A2986 RMK SLP157

EXPIRED METARs :
  • 041500Z AUTO 27014G19KT 9SM CLR 02/M11 A2984 RMK SLP148
  • 041400Z AUTO 28019G25KT 9SM CLR 03/M11 A2981 RMK SLP133
  • 041300Z AUTO 28017G22KT 9SM BKN240 03/M11 A2979 RMK SLP133
  • 041200Z AUTO 28013G22KT 9SM CLR 02/M11 A2976 RMK SLP122

TAF TAF CYBW
Valid from the 04 at 13:00 until the 05 at 01:00 UTC


041240Z 0413/0501 28012G22KT P6SM SKC
BECMG 0419/0421 22010KT
FM042300 22010KT P6SM BKN100 RMK FCST BASED ON AUTO OBS. NXT FCST BY 041800Z
CZEG FIR / North America



MET'MAP, your aeronautical weather chart ! - Copyright ORBIFLY December 2007 - Disclaimer

ORBIFLY MET'MAP TEAM :

Programming & Development : Alexandra Zaïnal
Original concept : Baudouin d'Aumeries
Technical & hardware support : Manuel Goepfert
Assistance : Marc-Olivier Méhu




SOURCES & CREDITS :

   NOAA       Earth
Advisory